sensor_id;sensor_type;location;lat;lon;timestamp;P1;durP1;ratioP1;P2;durP2;ratioP2
48034;SDS011;33812;46.480;6.834;2023-07-31T00:00:47;1.40;;;1.00;;
48034;SDS011;33812;46.480;6.834;2023-07-31T00:04:48;0.40;;;0.40;;
48034;SDS011;33812;46.480;6.834;2023-07-31T00:08:50;1.92;;;0.70;;
48034;SDS011;33812;46.480;6.834;2023-07-31T00:12:52;0.68;;;0.60;;
48034;SDS011;33812;46.480;6.834;2023-07-31T00:16:55;0.70;;;0.52;;
48034;SDS011;33812;46.480;6.834;2023-07-31T00:20:57;0.60;;;0.60;;
48034;SDS011;33812;46.480;6.834;2023-07-31T00:24:58;1.33;;;0.65;;
48034;SDS011;33812;46.480;6.834;2023-07-31T00:29:00;1.45;;;0.95;;
48034;SDS011;33812;46.480;6.834;2023-07-31T00:33:04;1.23;;;0.80;;
48034;SDS011;33812;46.480;6.834;2023-07-31T00:37:05;0.85;;;0.70;;
48034;SDS011;33812;46.480;6.834;2023-07-31T00:41:07;1.23;;;0.80;;
48034;SDS011;33812;46.480;6.834;2023-07-31T00:45:09;1.33;;;0.60;;
48034;SDS011;33812;46.480;6.834;2023-07-31T00:49:15;1.13;;;0.90;;
48034;SDS011;33812;46.480;6.834;2023-07-31T00:53:17;1.40;;;0.83;;
48034;SDS011;33812;46.480;6.834;2023-07-31T00:57:19;1.13;;;0.75;;
48034;SDS011;33812;46.480;6.834;2023-07-31T01:01:21;1.23;;;0.82;;
48034;SDS011;33812;46.480;6.834;2023-07-31T01:05:25;1.33;;;0.70;;
48034;SDS011;33812;46.480;6.834;2023-07-31T01:09:34;1.00;;;0.70;;
48034;SDS011;33812;46.480;6.834;2023-07-31T01:13:42;1.30;;;0.80;;
48034;SDS011;33812;46.480;6.834;2023-07-31T01:17:44;1.05;;;0.75;;
48034;SDS011;33812;46.480;6.834;2023-07-31T01:21:58;1.20;;;0.80;;
48034;SDS011;33812;46.480;6.834;2023-07-31T01:26:30;0.93;;;0.80;;
48034;SDS011;33812;46.480;6.834;2023-07-31T01:30:37;1.23;;;0.70;;
48034;SDS011;33812;46.480;6.834;2023-07-31T01:34:42;0.77;;;0.70;;
48034;SDS011;33812;46.480;6.834;2023-07-31T01:38:45;0.90;;;0.70;;
48034;SDS011;33812;46.480;6.834;2023-07-31T01:42:48;0.95;;;0.70;;
48034;SDS011;33812;46.480;6.834;2023-07-31T01:46:50;1.05;;;0.73;;
48034;SDS011;33812;46.480;6.834;2023-07-31T01:50:52;1.40;;;0.57;;
48034;SDS011;33812;46.480;6.834;2023-07-31T01:54:53;0.80;;;0.70;;
48034;SDS011;33812;46.480;6.834;2023-07-31T01:58:56;1.08;;;0.90;;
48034;SDS011;33812;46.480;6.834;2023-07-31T02:02:59;1.25;;;0.75;;
48034;SDS011;33812;46.480;6.834;2023-07-31T02:07:01;0.80;;;0.75;;
48034;SDS011;33812;46.480;6.834;2023-07-31T02:11:03;1.33;;;0.90;;
48034;SDS011;33812;46.480;6.834;2023-07-31T02:15:06;1.52;;;1.00;;
48034;SDS011;33812;46.480;6.834;2023-07-31T02:19:08;2.17;;;0.73;;
48034;SDS011;33812;46.480;6.834;2023-07-31T02:23:10;1.13;;;0.80;;
48034;SDS011;33812;46.480;6.834;2023-07-31T02:27:12;0.88;;;0.80;;
48034;SDS011;33812;46.480;6.834;2023-07-31T02:31:15;1.20;;;0.77;;
48034;SDS011;33812;46.480;6.834;2023-07-31T02:35:17;1.02;;;0.63;;
48034;SDS011;33812;46.480;6.834;2023-07-31T02:39:18;0.88;;;0.70;;
48034;SDS011;33812;46.480;6.834;2023-07-31T02:43:20;1.45;;;0.88;;
48034;SDS011;33812;46.480;6.834;2023-07-31T02:47:23;0.80;;;0.60;;
48034;SDS011;33812;46.480;6.834;2023-07-31T02:51:25;1.50;;;1.00;;
48034;SDS011;33812;46.480;6.834;2023-07-31T02:55:27;2.15;;;0.82;;
48034;SDS011;33812;46.480;6.834;2023-07-31T02:59:29;1.02;;;0.70;;
48034;SDS011;33812;46.480;6.834;2023-07-31T03:03:32;1.35;;;0.70;;
48034;SDS011;33812;46.480;6.834;2023-07-31T03:07:34;1.67;;;0.80;;
48034;SDS011;33812;46.480;6.834;2023-07-31T03:11:35;0.82;;;0.80;;
48034;SDS011;33812;46.480;6.834;2023-07-31T03:15:37;2.22;;;0.70;;
48034;SDS011;33812;46.480;6.834;2023-07-31T03:19:40;3.30;;;0.75;;
48034;SDS011;33812;46.480;6.834;2023-07-31T03:23:42;1.10;;;0.70;;
48034;SDS011;33812;46.480;6.834;2023-07-31T03:27:44;1.00;;;0.70;;
48034;SDS011;33812;46.480;6.834;2023-07-31T03:31:45;1.25;;;0.75;;
48034;SDS011;33812;46.480;6.834;2023-07-31T03:35:49;1.05;;;0.68;;
48034;SDS011;33812;46.480;6.834;2023-07-31T03:39:50;1.08;;;0.60;;
48034;SDS011;33812;46.480;6.834;2023-07-31T03:43:52;1.38;;;0.85;;
48034;SDS011;33812;46.480;6.834;2023-07-31T03:47:56;1.00;;;0.80;;
48034;SDS011;33812;46.480;6.834;2023-07-31T03:51:59;1.25;;;0.70;;
48034;SDS011;33812;46.480;6.834;2023-07-31T03:56:01;0.85;;;0.65;;
48034;SDS011;33812;46.480;6.834;2023-07-31T04:00:03;0.90;;;0.60;;
48034;SDS011;33812;46.480;6.834;2023-07-31T04:04:05;1.50;;;0.75;;
48034;SDS011;33812;46.480;6.834;2023-07-31T04:08:08;0.93;;;0.80;;
48034;SDS011;33812;46.480;6.834;2023-07-31T04:12:10;1.42;;;0.88;;
48034;SDS011;33812;46.480;6.834;2023-07-31T04:16:11;1.15;;;0.90;;
48034;SDS011;33812;46.480;6.834;2023-07-31T04:20:13;1.30;;;0.82;;
48034;SDS011;33812;46.480;6.834;2023-07-31T04:24:16;1.17;;;0.88;;
48034;SDS011;33812;46.480;6.834;2023-07-31T04:28:24;0.80;;;0.60;;
48034;SDS011;33812;46.480;6.834;2023-07-31T04:32:26;1.02;;;0.63;;
48034;SDS011;33812;46.480;6.834;2023-07-31T04:36:29;1.02;;;0.80;;
48034;SDS011;33812;46.480;6.834;2023-07-31T04:40:32;0.90;;;0.70;;
48034;SDS011;33812;46.480;6.834;2023-07-31T04:44:33;1.33;;;0.75;;
48034;SDS011;33812;46.480;6.834;2023-07-31T04:48:36;1.52;;;0.73;;
48034;SDS011;33812;46.480;6.834;2023-07-31T04:52:38;1.85;;;0.80;;
48034;SDS011;33812;46.480;6.834;2023-07-31T04:56:41;0.90;;;0.68;;
48034;SDS011;33812;46.480;6.834;2023-07-31T05:00:42;0.57;;;0.57;;
48034;SDS011;33812;46.480;6.834;2023-07-31T05:04:44;1.25;;;0.80;;
48034;SDS011;33812;46.480;6.834;2023-07-31T05:08:46;2.55;;;0.90;;
48034;SDS011;33812;46.480;6.834;2023-07-31T05:12:49;0.60;;;0.57;;
48034;SDS011;33812;46.480;6.834;2023-07-31T05:16:51;1.30;;;0.80;;
48034;SDS011;33812;46.480;6.834;2023-07-31T05:20:53;0.82;;;0.80;;
48034;SDS011;33812;46.480;6.834;2023-07-31T05:24:54;3.60;;;0.70;;
48034;SDS011;33812;46.480;6.834;2023-07-31T05:28:57;1.15;;;0.82;;
48034;SDS011;33812;46.480;6.834;2023-07-31T05:32:59;1.05;;;0.77;;
48034;SDS011;33812;46.480;6.834;2023-07-31T05:37:01;1.10;;;0.80;;
48034;SDS011;33812;46.480;6.834;2023-07-31T05:41:03;0.80;;;0.57;;
48034;SDS011;33812;46.480;6.834;2023-07-31T05:45:06;1.13;;;0.80;;
48034;SDS011;33812;46.480;6.834;2023-07-31T05:49:09;1.23;;;0.70;;
48034;SDS011;33812;46.480;6.834;2023-07-31T05:53:11;1.27;;;0.63;;
48034;SDS011;33812;46.480;6.834;2023-07-31T05:57:13;0.88;;;0.70;;
48034;SDS011;33812;46.480;6.834;2023-07-31T06:01:16;1.13;;;0.63;;
48034;SDS011;33812;46.480;6.834;2023-07-31T06:05:18;1.02;;;0.65;;
48034;SDS011;33812;46.480;6.834;2023-07-31T06:09:20;0.77;;;0.70;;
48034;SDS011;33812;46.480;6.834;2023-07-31T06:13:22;0.77;;;0.60;;
48034;SDS011;33812;46.480;6.834;2023-07-31T06:17:25;0.73;;;0.70;;
48034;SDS011;33812;46.480;6.834;2023-07-31T06:21:27;1.65;;;0.70;;
48034;SDS011;33812;46.480;6.834;2023-07-31T06:25:30;0.98;;;0.85;;
48034;SDS011;33812;46.480;6.834;2023-07-31T06:29:31;0.82;;;0.70;;
48034;SDS011;33812;46.480;6.834;2023-07-31T06:33:34;1.73;;;0.70;;
48034;SDS011;33812;46.480;6.834;2023-07-31T06:37:36;0.88;;;0.70;;
48034;SDS011;33812;46.480;6.834;2023-07-31T06:41:40;1.13;;;0.80;;
48034;SDS011;33812;46.480;6.834;2023-07-31T06:45:42;2.13;;;0.90;;
48034;SDS011;33812;46.480;6.834;2023-07-31T06:49:46;0.75;;;0.60;;
48034;SDS011;33812;46.480;6.834;2023-07-31T06:53:47;1.30;;;0.70;;
48034;SDS011;33812;46.480;6.834;2023-07-31T06:57:50;1.27;;;0.88;;
48034;SDS011;33812;46.480;6.834;2023-07-31T07:01:53;0.67;;;0.60;;
48034;SDS011;33812;46.480;6.834;2023-07-31T07:05:56;1.30;;;0.82;;
48034;SDS011;33812;46.480;6.834;2023-07-31T07:09:58;1.10;;;0.70;;
48034;SDS011;33812;46.480;6.834;2023-07-31T07:14:00;0.95;;;0.68;;
48034;SDS011;33812;46.480;6.834;2023-07-31T07:18:02;1.10;;;0.90;;
48034;SDS011;33812;46.480;6.834;2023-07-31T07:22:06;0.80;;;0.70;;
48034;SDS011;33812;46.480;6.834;2023-07-31T07:26:07;1.50;;;0.75;;
48034;SDS011;33812;46.480;6.834;2023-07-31T07:30:09;1.00;;;0.88;;
48034;SDS011;33812;46.480;6.834;2023-07-31T07:34:11;1.10;;;0.70;;
48034;SDS011;33812;46.480;6.834;2023-07-31T07:38:14;1.00;;;0.70;;
48034;SDS011;33812;46.480;6.834;2023-07-31T07:42:16;1.08;;;0.80;;
48034;SDS011;33812;46.480;6.834;2023-07-31T07:46:18;0.75;;;0.57;;
48034;SDS011;33812;46.480;6.834;2023-07-31T07:50:20;1.75;;;0.90;;
48034;SDS011;33812;46.480;6.834;2023-07-31T07:54:23;1.10;;;1.00;;
48034;SDS011;33812;46.480;6.834;2023-07-31T07:58:24;1.27;;;0.80;;
48034;SDS011;33812;46.480;6.834;2023-07-31T08:02:26;1.02;;;0.90;;
48034;SDS011;33812;46.480;6.834;2023-07-31T08:06:28;1.73;;;0.90;;
48034;SDS011;33812;46.480;6.834;2023-07-31T08:10:31;0.80;;;0.80;;
48034;SDS011;33812;46.480;6.834;2023-07-31T08:14:33;1.45;;;0.90;;
48034;SDS011;33812;46.480;6.834;2023-07-31T08:18:35;0.68;;;0.68;;
48034;SDS011;33812;46.480;6.834;2023-07-31T08:22:37;1.50;;;0.90;;
48034;SDS011;33812;46.480;6.834;2023-07-31T08:26:40;0.90;;;0.70;;
48034;SDS011;33812;46.480;6.834;2023-07-31T08:30:43;1.35;;;0.90;;
48034;SDS011;33812;46.480;6.834;2023-07-31T08:34:45;1.10;;;0.73;;
48034;SDS011;33812;46.480;6.834;2023-07-31T08:38:47;1.35;;;0.95;;
48034;SDS011;33812;46.480;6.834;2023-07-31T08:42:51;1.10;;;0.80;;
48034;SDS011;33812;46.480;6.834;2023-07-31T08:46:56;0.68;;;0.60;;
48034;SDS011;33812;46.480;6.834;2023-07-31T08:50:58;1.13;;;0.90;;
48034;SDS011;33812;46.480;6.834;2023-07-31T08:55:03;1.17;;;0.80;;
48034;SDS011;33812;46.480;6.834;2023-07-31T08:59:07;0.88;;;0.73;;
48034;SDS011;33812;46.480;6.834;2023-07-31T09:03:13;1.48;;;0.95;;
48034;SDS011;33812;46.480;6.834;2023-07-31T09:07:17;1.52;;;0.85;;
48034;SDS011;33812;46.480;6.834;2023-07-31T09:11:18;0.80;;;0.80;;
48034;SDS011;33812;46.480;6.834;2023-07-31T09:15:24;1.30;;;1.02;;
48034;SDS011;33812;46.480;6.834;2023-07-31T09:23:40;1.05;;;0.85;;
48034;SDS011;33812;46.480;6.834;2023-07-31T09:27:49;0.88;;;0.68;;
48034;SDS011;33812;46.480;6.834;2023-07-31T09:31:53;1.58;;;0.80;;
48034;SDS011;33812;46.480;6.834;2023-07-31T09:35:55;1.15;;;0.90;;
48034;SDS011;33812;46.480;6.834;2023-07-31T09:44:02;1.08;;;0.90;;
48034;SDS011;33812;46.480;6.834;2023-07-31T09:48:07;1.40;;;0.80;;
48034;SDS011;33812;46.480;6.834;2023-07-31T09:52:11;1.33;;;1.00;;
48034;SDS011;33812;46.480;6.834;2023-07-31T09:56:15;2.00;;;0.95;;
48034;SDS011;33812;46.480;6.834;2023-07-31T10:00:19;0.83;;;0.63;;
48034;SDS011;33812;46.480;6.834;2023-07-31T10:04:29;1.20;;;0.90;;
48034;SDS011;33812;46.480;6.834;2023-07-31T10:08:32;0.95;;;0.80;;
48034;SDS011;33812;46.480;6.834;2023-07-31T10:12:36;1.33;;;0.82;;
48034;SDS011;33812;46.480;6.834;2023-07-31T10:16:39;2.15;;;0.88;;
48034;SDS011;33812;46.480;6.834;2023-07-31T10:20:44;1.63;;;1.00;;
48034;SDS011;33812;46.480;6.834;2023-07-31T10:28:51;1.10;;;1.00;;
48034;SDS011;33812;46.480;6.834;2023-07-31T10:32:54;1.15;;;0.85;;
48034;SDS011;33812;46.480;6.834;2023-07-31T10:41:28;1.13;;;0.80;;
48034;SDS011;33812;46.480;6.834;2023-07-31T10:45:32;2.28;;;1.30;;
48034;SDS011;33812;46.480;6.834;2023-07-31T10:49:36;1.45;;;0.90;;
48034;SDS011;33812;46.480;6.834;2023-07-31T10:53:41;0.97;;;0.80;;
48034;SDS011;33812;46.480;6.834;2023-07-31T10:57:44;1.63;;;0.88;;
48034;SDS011;33812;46.480;6.834;2023-07-31T11:01:50;1.08;;;0.65;;
48034;SDS011;33812;46.480;6.834;2023-07-31T11:05:52;2.10;;;0.77;;
48034;SDS011;33812;46.480;6.834;2023-07-31T11:10:02;2.33;;;0.93;;
48034;SDS011;33812;46.480;6.834;2023-07-31T11:14:04;1.40;;;0.90;;
48034;SDS011;33812;46.480;6.834;2023-07-31T11:18:06;1.80;;;0.80;;
48034;SDS011;33812;46.480;6.834;2023-07-31T11:22:10;1.47;;;1.00;;
48034;SDS011;33812;46.480;6.834;2023-07-31T11:26:14;1.00;;;0.90;;
48034;SDS011;33812;46.480;6.834;2023-07-31T11:30:18;1.42;;;0.88;;
48034;SDS011;33812;46.480;6.834;2023-07-31T11:34:20;1.77;;;0.90;;
48034;SDS011;33812;46.480;6.834;2023-07-31T11:38:22;1.75;;;0.90;;
48034;SDS011;33812;46.480;6.834;2023-07-31T11:42:26;1.05;;;0.90;;
48034;SDS011;33812;46.480;6.834;2023-07-31T11:46:31;1.15;;;0.88;;
48034;SDS011;33812;46.480;6.834;2023-07-31T11:50:33;1.10;;;0.90;;
48034;SDS011;33812;46.480;6.834;2023-07-31T11:54:37;1.55;;;1.00;;
48034;SDS011;33812;46.480;6.834;2023-07-31T11:58:41;1.40;;;1.10;;
48034;SDS011;33812;46.480;6.834;2023-07-31T12:02:45;1.80;;;1.05;;
48034;SDS011;33812;46.480;6.834;2023-07-31T12:06:47;1.02;;;0.88;;
48034;SDS011;33812;46.480;6.834;2023-07-31T12:10:50;1.75;;;1.10;;
48034;SDS011;33812;46.480;6.834;2023-07-31T12:14:56;1.40;;;1.08;;
48034;SDS011;33812;46.480;6.834;2023-07-31T12:18:58;0.98;;;0.85;;
48034;SDS011;33812;46.480;6.834;2023-07-31T12:23:00;0.70;;;0.70;;
48034;SDS011;33812;46.480;6.834;2023-07-31T12:27:07;2.17;;;1.05;;
48034;SDS011;33812;46.480;6.834;2023-07-31T12:31:12;1.15;;;1.00;;
48034;SDS011;33812;46.480;6.834;2023-07-31T12:35:15;4.03;;;1.15;;
48034;SDS011;33812;46.480;6.834;2023-07-31T12:39:17;1.63;;;0.80;;
48034;SDS011;33812;46.480;6.834;2023-07-31T12:43:18;2.15;;;0.80;;
48034;SDS011;33812;46.480;6.834;2023-07-31T12:47:22;1.98;;;0.90;;
48034;SDS011;33812;46.480;6.834;2023-07-31T12:51:23;0.90;;;0.80;;
48034;SDS011;33812;46.480;6.834;2023-07-31T12:55:25;2.35;;;0.95;;
48034;SDS011;33812;46.480;6.834;2023-07-31T12:59:27;1.27;;;0.80;;
48034;SDS011;33812;46.480;6.834;2023-07-31T13:03:31;1.27;;;0.57;;
48034;SDS011;33812;46.480;6.834;2023-07-31T13:07:32;2.17;;;1.02;;
48034;SDS011;33812;46.480;6.834;2023-07-31T13:11:34;1.80;;;1.00;;
48034;SDS011;33812;46.480;6.834;2023-07-31T13:15:36;2.10;;;1.10;;
48034;SDS011;33812;46.480;6.834;2023-07-31T13:19:39;0.95;;;0.80;;
48034;SDS011;33812;46.480;6.834;2023-07-31T13:23:41;1.10;;;0.80;;
48034;SDS011;33812;46.480;6.834;2023-07-31T13:27:42;1.42;;;0.80;;
48034;SDS011;33812;46.480;6.834;2023-07-31T13:31:44;0.93;;;0.82;;
48034;SDS011;33812;46.480;6.834;2023-07-31T13:35:47;0.98;;;0.80;;
48034;SDS011;33812;46.480;6.834;2023-07-31T13:39:49;1.40;;;0.93;;
48034;SDS011;33812;46.480;6.834;2023-07-31T13:43:51;1.48;;;1.00;;
48034;SDS011;33812;46.480;6.834;2023-07-31T13:47:53;2.13;;;0.90;;
48034;SDS011;33812;46.480;6.834;2023-07-31T13:51:56;1.25;;;0.98;;
48034;SDS011;33812;46.480;6.834;2023-07-31T13:55:58;1.20;;;0.77;;
48034;SDS011;33812;46.480;6.834;2023-07-31T14:00:01;1.73;;;0.90;;
48034;SDS011;33812;46.480;6.834;2023-07-31T14:04:02;1.80;;;0.95;;
48034;SDS011;33812;46.480;6.834;2023-07-31T14:08:06;1.20;;;0.90;;
48034;SDS011;33812;46.480;6.834;2023-07-31T14:12:07;1.67;;;0.90;;
48034;SDS011;33812;46.480;6.834;2023-07-31T14:16:09;3.70;;;1.20;;
48034;SDS011;33812;46.480;6.834;2023-07-31T14:20:11;1.20;;;0.90;;
48034;SDS011;33812;46.480;6.834;2023-07-31T14:24:15;4.13;;;0.95;;
48034;SDS011;33812;46.480;6.834;2023-07-31T14:28:16;3.47;;;1.20;;
48034;SDS011;33812;46.480;6.834;2023-07-31T14:32:18;7.85;;;0.90;;
48034;SDS011;33812;46.480;6.834;2023-07-31T14:36:20;4.35;;;0.90;;
48034;SDS011;33812;46.480;6.834;2023-07-31T14:40:23;14.65;;;1.10;;
48034;SDS011;33812;46.480;6.834;2023-07-31T14:44:25;6.10;;;0.90;;
48034;SDS011;33812;46.480;6.834;2023-07-31T14:48:27;3.28;;;0.80;;
48034;SDS011;33812;46.480;6.834;2023-07-31T14:52:29;2.50;;;1.13;;
48034;SDS011;33812;46.480;6.834;2023-07-31T14:56:32;4.90;;;1.13;;
48034;SDS011;33812;46.480;6.834;2023-07-31T15:00:34;1.77;;;1.15;;
48034;SDS011;33812;46.480;6.834;2023-07-31T15:04:36;7.65;;;1.10;;
48034;SDS011;33812;46.480;6.834;2023-07-31T15:08:38;4.35;;;1.10;;
48034;SDS011;33812;46.480;6.834;2023-07-31T15:12:43;3.35;;;0.95;;
48034;SDS011;33812;46.480;6.834;2023-07-31T15:16:45;4.03;;;1.00;;
48034;SDS011;33812;46.480;6.834;2023-07-31T15:20:47;2.92;;;1.02;;
48034;SDS011;33812;46.480;6.834;2023-07-31T15:24:48;2.15;;;1.05;;
48034;SDS011;33812;46.480;6.834;2023-07-31T15:28:55;2.33;;;0.77;;
48034;SDS011;33812;46.480;6.834;2023-07-31T15:32:58;2.28;;;0.77;;
48034;SDS011;33812;46.480;6.834;2023-07-31T15:37:00;1.10;;;0.80;;
48034;SDS011;33812;46.480;6.834;2023-07-31T15:41:02;3.78;;;1.20;;
48034;SDS011;33812;46.480;6.834;2023-07-31T15:45:06;6.00;;;1.00;;
48034;SDS011;33812;46.480;6.834;2023-07-31T15:49:08;5.93;;;1.60;;
48034;SDS011;33812;46.480;6.834;2023-07-31T15:53:11;17.75;;;1.83;;
48034;SDS011;33812;46.480;6.834;2023-07-31T15:57:12;10.05;;;1.98;;
48034;SDS011;33812;46.480;6.834;2023-07-31T16:01:15;6.13;;;2.35;;
48034;SDS011;33812;46.480;6.834;2023-07-31T16:05:17;23.13;;;2.20;;
48034;SDS011;33812;46.480;6.834;2023-07-31T16:09:19;10.77;;;1.17;;
48034;SDS011;33812;46.480;6.834;2023-07-31T16:13:21;4.32;;;1.40;;
48034;SDS011;33812;46.480;6.834;2023-07-31T16:17:24;9.88;;;2.03;;
48034;SDS011;33812;46.480;6.834;2023-07-31T16:21:26;13.10;;;1.67;;
48034;SDS011;33812;46.480;6.834;2023-07-31T16:25:27;9.50;;;1.73;;
48034;SDS011;33812;46.480;6.834;2023-07-31T16:29:29;9.93;;;1.83;;
48034;SDS011;33812;46.480;6.834;2023-07-31T16:33:32;10.25;;;2.33;;
48034;SDS011;33812;46.480;6.834;2023-07-31T16:37:34;11.25;;;1.90;;
48034;SDS011;33812;46.480;6.834;2023-07-31T16:41:37;10.00;;;1.90;;
48034;SDS011;33812;46.480;6.834;2023-07-31T16:45:38;7.25;;;1.95;;
48034;SDS011;33812;46.480;6.834;2023-07-31T16:49:42;7.45;;;2.15;;
48034;SDS011;33812;46.480;6.834;2023-07-31T16:53:43;11.93;;;2.20;;
48034;SDS011;33812;46.480;6.834;2023-07-31T16:57:46;11.70;;;2.55;;
48034;SDS011;33812;46.480;6.834;2023-07-31T17:01:48;7.25;;;2.53;;
48034;SDS011;33812;46.480;6.834;2023-07-31T17:05:51;12.93;;;3.28;;
48034;SDS011;33812;46.480;6.834;2023-07-31T17:09:52;8.13;;;3.22;;
48034;SDS011;33812;46.480;6.834;2023-07-31T17:13:56;11.80;;;3.10;;
48034;SDS011;33812;46.480;6.834;2023-07-31T17:17:58;9.48;;;3.35;;
48034;SDS011;33812;46.480;6.834;2023-07-31T17:22:01;6.22;;;3.42;;
48034;SDS011;33812;46.480;6.834;2023-07-31T17:26:03;5.32;;;3.22;;
48034;SDS011;33812;46.480;6.834;2023-07-31T17:30:05;6.15;;;2.65;;
48034;SDS011;33812;46.480;6.834;2023-07-31T17:34:08;5.63;;;2.83;;
48034;SDS011;33812;46.480;6.834;2023-07-31T17:38:12;11.43;;;3.38;;
48034;SDS011;33812;46.480;6.834;2023-07-31T17:46:17;6.32;;;3.50;;
48034;SDS011;33812;46.480;6.834;2023-07-31T17:50:19;7.47;;;3.58;;
48034;SDS011;33812;46.480;6.834;2023-07-31T17:54:23;5.65;;;3.05;;
48034;SDS011;33812;46.480;6.834;2023-07-31T17:58:27;6.05;;;2.92;;
48034;SDS011;33812;46.480;6.834;2023-07-31T18:02:29;11.98;;;3.05;;
48034;SDS011;33812;46.480;6.834;2023-07-31T18:06:31;5.97;;;2.80;;
48034;SDS011;33812;46.480;6.834;2023-07-31T18:10:35;4.90;;;2.70;;
48034;SDS011;33812;46.480;6.834;2023-07-31T18:14:45;5.50;;;2.72;;
48034;SDS011;33812;46.480;6.834;2023-07-31T18:18:46;3.75;;;2.58;;
48034;SDS011;33812;46.480;6.834;2023-07-31T18:22:48;11.65;;;3.03;;
48034;SDS011;33812;46.480;6.834;2023-07-31T18:26:51;5.00;;;2.47;;
48034;SDS011;33812;46.480;6.834;2023-07-31T18:30:56;5.93;;;3.22;;
48034;SDS011;33812;46.480;6.834;2023-07-31T18:34:58;8.80;;;2.58;;
48034;SDS011;33812;46.480;6.834;2023-07-31T18:39:00;6.07;;;2.83;;
48034;SDS011;33812;46.480;6.834;2023-07-31T18:43:03;6.10;;;2.75;;
48034;SDS011;33812;46.480;6.834;2023-07-31T18:47:05;6.43;;;2.53;;
48034;SDS011;33812;46.480;6.834;2023-07-31T18:51:07;5.68;;;2.55;;
48034;SDS011;33812;46.480;6.834;2023-07-31T18:55:09;6.30;;;2.78;;
48034;SDS011;33812;46.480;6.834;2023-07-31T18:59:12;10.00;;;2.97;;
48034;SDS011;33812;46.480;6.834;2023-07-31T19:03:13;6.05;;;2.75;;
48034;SDS011;33812;46.480;6.834;2023-07-31T19:07:16;10.23;;;2.85;;
48034;SDS011;33812;46.480;6.834;2023-07-31T19:11:18;7.95;;;3.20;;
48034;SDS011;33812;46.480;6.834;2023-07-31T19:15:21;5.50;;;3.20;;
48034;SDS011;33812;46.480;6.834;2023-07-31T19:19:22;6.15;;;2.97;;
48034;SDS011;33812;46.480;6.834;2023-07-31T19:23:24;4.75;;;2.97;;
48034;SDS011;33812;46.480;6.834;2023-07-31T19:27:26;4.95;;;2.58;;
48034;SDS011;33812;46.480;6.834;2023-07-31T19:31:29;4.95;;;2.88;;
48034;SDS011;33812;46.480;6.834;2023-07-31T19:35:31;8.38;;;2.95;;
48034;SDS011;33812;46.480;6.834;2023-07-31T19:39:33;17.90;;;3.80;;
48034;SDS011;33812;46.480;6.834;2023-07-31T19:43:35;15.00;;;3.75;;
48034;SDS011;33812;46.480;6.834;2023-07-31T19:47:38;8.57;;;3.63;;
48034;SDS011;33812;46.480;6.834;2023-07-31T19:51:40;6.00;;;2.90;;
48034;SDS011;33812;46.480;6.834;2023-07-31T19:55:41;8.27;;;2.92;;
48034;SDS011;33812;46.480;6.834;2023-07-31T19:59:43;13.38;;;3.13;;
48034;SDS011;33812;46.480;6.834;2023-07-31T20:03:46;11.13;;;3.25;;
48034;SDS011;33812;46.480;6.834;2023-07-31T20:07:49;6.07;;;2.78;;
48034;SDS011;33812;46.480;6.834;2023-07-31T20:11:52;11.95;;;3.53;;
48034;SDS011;33812;46.480;6.834;2023-07-31T20:15:55;6.53;;;2.50;;
48034;SDS011;33812;46.480;6.834;2023-07-31T20:19:58;5.18;;;3.20;;
48034;SDS011;33812;46.480;6.834;2023-07-31T20:24:00;11.35;;;4.68;;
48034;SDS011;33812;46.480;6.834;2023-07-31T20:28:02;8.40;;;3.33;;
48034;SDS011;33812;46.480;6.834;2023-07-31T20:32:04;7.07;;;3.05;;
48034;SDS011;33812;46.480;6.834;2023-07-31T20:36:07;17.45;;;4.35;;
48034;SDS011;33812;46.480;6.834;2023-07-31T20:40:11;10.55;;;3.22;;
48034;SDS011;33812;46.480;6.834;2023-07-31T20:44:13;7.40;;;2.90;;
48034;SDS011;33812;46.480;6.834;2023-07-31T20:48:14;6.45;;;3.20;;
48034;SDS011;33812;46.480;6.834;2023-07-31T20:52:18;7.53;;;3.53;;
48034;SDS011;33812;46.480;6.834;2023-07-31T20:56:19;5.65;;;3.53;;
48034;SDS011;33812;46.480;6.834;2023-07-31T21:00:21;8.32;;;4.30;;
48034;SDS011;33812;46.480;6.834;2023-07-31T21:04:23;7.60;;;3.95;;
48034;SDS011;33812;46.480;6.834;2023-07-31T21:08:26;9.35;;;4.20;;
48034;SDS011;33812;46.480;6.834;2023-07-31T21:12:28;7.57;;;3.75;;
48034;SDS011;33812;46.480;6.834;2023-07-31T21:16:30;8.73;;;3.67;;
48034;SDS011;33812;46.480;6.834;2023-07-31T21:20:31;7.60;;;4.95;;
48034;SDS011;33812;46.480;6.834;2023-07-31T21:24:34;5.53;;;3.33;;
48034;SDS011;33812;46.480;6.834;2023-07-31T21:28:36;4.53;;;3.20;;
48034;SDS011;33812;46.480;6.834;2023-07-31T21:32:38;6.25;;;3.45;;
48034;SDS011;33812;46.480;6.834;2023-07-31T21:36:40;4.40;;;3.13;;
48034;SDS011;33812;46.480;6.834;2023-07-31T21:40:43;5.10;;;4.05;;
48034;SDS011;33812;46.480;6.834;2023-07-31T21:44:45;3.58;;;3.08;;
48034;SDS011;33812;46.480;6.834;2023-07-31T21:48:46;4.00;;;3.10;;
48034;SDS011;33812;46.480;6.834;2023-07-31T21:52:48;5.10;;;3.13;;
48034;SDS011;33812;46.480;6.834;2023-07-31T21:56:51;5.68;;;3.40;;
48034;SDS011;33812;46.480;6.834;2023-07-31T22:00:53;9.85;;;3.10;;
48034;SDS011;33812;46.480;6.834;2023-07-31T22:04:55;4.55;;;3.20;;
48034;SDS011;33812;46.480;6.834;2023-07-31T22:08:56;6.43;;;3.45;;
48034;SDS011;33812;46.480;6.834;2023-07-31T22:13:00;6.72;;;3.35;;
48034;SDS011;33812;46.480;6.834;2023-07-31T22:17:02;8.25;;;3.13;;
48034;SDS011;33812;46.480;6.834;2023-07-31T22:21:03;5.75;;;3.30;;
48034;SDS011;33812;46.480;6.834;2023-07-31T22:25:05;9.07;;;3.25;;
48034;SDS011;33812;46.480;6.834;2023-07-31T22:29:10;5.78;;;3.22;;
48034;SDS011;33812;46.480;6.834;2023-07-31T22:33:12;5.50;;;3.80;;
48034;SDS011;33812;46.480;6.834;2023-07-31T22:37:14;4.88;;;3.03;;
48034;SDS011;33812;46.480;6.834;2023-07-31T22:41:16;4.35;;;3.03;;
48034;SDS011;33812;46.480;6.834;2023-07-31T22:45:19;4.05;;;3.05;;
48034;SDS011;33812;46.480;6.834;2023-07-31T22:49:21;10.07;;;3.17;;
48034;SDS011;33812;46.480;6.834;2023-07-31T22:53:22;5.38;;;3.03;;
48034;SDS011;33812;46.480;6.834;2023-07-31T22:57:24;5.85;;;3.45;;
48034;SDS011;33812;46.480;6.834;2023-07-31T23:01:27;4.97;;;3.20;;
48034;SDS011;33812;46.480;6.834;2023-07-31T23:05:31;4.15;;;2.95;;
48034;SDS011;33812;46.480;6.834;2023-07-31T23:09:33;4.60;;;2.80;;
48034;SDS011;33812;46.480;6.834;2023-07-31T23:13:35;4.47;;;2.85;;
48034;SDS011;33812;46.480;6.834;2023-07-31T23:17:39;6.18;;;2.72;;
48034;SDS011;33812;46.480;6.834;2023-07-31T23:21:41;3.80;;;2.95;;
48034;SDS011;33812;46.480;6.834;2023-07-31T23:25:42;4.20;;;2.95;;
48034;SDS011;33812;46.480;6.834;2023-07-31T23:29:46;5.10;;;3.00;;
48034;SDS011;33812;46.480;6.834;2023-07-31T23:33:49;4.47;;;3.00;;
48034;SDS011;33812;46.480;6.834;2023-07-31T23:37:51;6.57;;;3.15;;
48034;SDS011;33812;46.480;6.834;2023-07-31T23:41:53;8.68;;;2.97;;
48034;SDS011;33812;46.480;6.834;2023-07-31T23:45:55;6.88;;;3.10;;
48034;SDS011;33812;46.480;6.834;2023-07-31T23:49:58;4.75;;;3.28;;
48034;SDS011;33812;46.480;6.834;2023-07-31T23:54:00;9.88;;;2.83;;
48034;SDS011;33812;46.480;6.834;2023-07-31T23:58:02;6.55;;;2.90;;
